sensor_id;sensor_type;location;lat;lon;timestamp;P1;durP1;ratioP1;P2;durP2;ratioP2
46022;SDS011;31756;47.936;16.224;2023-01-26T00:00:59;92.07;;;37.13;;
46022;SDS011;31756;47.936;16.224;2023-01-26T00:03:25;91.03;;;36.40;;
46022;SDS011;31756;47.936;16.224;2023-01-26T00:05:51;92.43;;;36.77;;
46022;SDS011;31756;47.936;16.224;2023-01-26T00:08:17;93.47;;;37.13;;
46022;SDS011;31756;47.936;16.224;2023-01-26T00:10:43;95.07;;;37.40;;
46022;SDS011;31756;47.936;16.224;2023-01-26T00:13:17;95.10;;;37.17;;
46022;SDS011;31756;47.936;16.224;2023-01-26T00:15:44;96.87;;;37.63;;
46022;SDS011;31756;47.936;16.224;2023-01-26T00:18:09;95.50;;;36.83;;
46022;SDS011;31756;47.936;16.224;2023-01-26T00:20:35;97.20;;;37.80;;
46022;SDS011;31756;47.936;16.224;2023-01-26T00:23:01;96.53;;;37.03;;
46022;SDS011;31756;47.936;16.224;2023-01-26T00:25:26;97.40;;;37.23;;
46022;SDS011;31756;47.936;16.224;2023-01-26T00:27:52;98.90;;;37.80;;
46022;SDS011;31756;47.936;16.224;2023-01-26T00:30:18;98.33;;;37.33;;
46022;SDS011;31756;47.936;16.224;2023-01-26T00:32:44;98.67;;;36.97;;
46022;SDS011;31756;47.936;16.224;2023-01-26T00:35:10;99.30;;;37.80;;
46022;SDS011;31756;47.936;16.224;2023-01-26T00:37:36;99.20;;;37.83;;
46022;SDS011;31756;47.936;16.224;2023-01-26T00:40:05;99.60;;;37.67;;
46022;SDS011;31756;47.936;16.224;2023-01-26T00:42:31;99.20;;;37.40;;
46022;SDS011;31756;47.936;16.224;2023-01-26T00:44:56;100.40;;;38.13;;
46022;SDS011;31756;47.936;16.224;2023-01-26T00:47:22;100.13;;;37.53;;
46022;SDS011;31756;47.936;16.224;2023-01-26T00:49:48;100.70;;;37.90;;
46022;SDS011;31756;47.936;16.224;2023-01-26T00:52:14;99.23;;;37.00;;
46022;SDS011;31756;47.936;16.224;2023-01-26T00:54:40;100.27;;;37.40;;
46022;SDS011;31756;47.936;16.224;2023-01-26T00:57:06;99.73;;;37.27;;
46022;SDS011;31756;47.936;16.224;2023-01-26T00:59:34;97.67;;;36.57;;
46022;SDS011;31756;47.936;16.224;2023-01-26T01:02:00;98.77;;;37.17;;
46022;SDS011;31756;47.936;16.224;2023-01-26T01:04:27;98.97;;;36.93;;
46022;SDS011;31756;47.936;16.224;2023-01-26T01:06:55;98.47;;;36.33;;
46022;SDS011;31756;47.936;16.224;2023-01-26T01:09:23;98.80;;;36.67;;
46022;SDS011;31756;47.936;16.224;2023-01-26T01:11:49;98.43;;;36.63;;
46022;SDS011;31756;47.936;16.224;2023-01-26T01:14:15;99.17;;;36.90;;
46022;SDS011;31756;47.936;16.224;2023-01-26T01:16:42;99.27;;;37.30;;
46022;SDS011;31756;47.936;16.224;2023-01-26T01:19:12;98.73;;;36.67;;
46022;SDS011;31756;47.936;16.224;2023-01-26T01:21:40;99.47;;;37.37;;
46022;SDS011;31756;47.936;16.224;2023-01-26T01:24:08;99.40;;;37.13;;
46022;SDS011;31756;47.936;16.224;2023-01-26T01:26:34;99.27;;;36.97;;
46022;SDS011;31756;47.936;16.224;2023-01-26T01:29:00;98.80;;;36.67;;
46022;SDS011;31756;47.936;16.224;2023-01-26T01:31:26;99.23;;;37.23;;
46022;SDS011;31756;47.936;16.224;2023-01-26T01:33:54;101.30;;;37.73;;
46022;SDS011;31756;47.936;16.224;2023-01-26T01:36:21;101.13;;;37.20;;
46022;SDS011;31756;47.936;16.224;2023-01-26T01:38:49;101.97;;;38.00;;
46022;SDS011;31756;47.936;16.224;2023-01-26T01:41:16;101.93;;;38.07;;
46022;SDS011;31756;47.936;16.224;2023-01-26T01:43:43;101.90;;;38.27;;
46022;SDS011;31756;47.936;16.224;2023-01-26T01:51:35;101.63;;;38.00;;
46022;SDS011;31756;47.936;16.224;2023-01-26T01:54:09;101.53;;;37.77;;
46022;SDS011;31756;47.936;16.224;2023-01-26T01:56:39;100.70;;;37.47;;
46022;SDS011;31756;47.936;16.224;2023-01-26T01:59:07;99.97;;;37.10;;
46022;SDS011;31756;47.936;16.224;2023-01-26T02:01:36;100.27;;;37.47;;
46022;SDS011;31756;47.936;16.224;2023-01-26T02:04:03;100.47;;;37.47;;
46022;SDS011;31756;47.936;16.224;2023-01-26T02:09:08;101.77;;;38.17;;
46022;SDS011;31756;47.936;16.224;2023-01-26T02:11:55;102.20;;;37.63;;
46022;SDS011;31756;47.936;16.224;2023-01-26T02:14:22;103.07;;;38.50;;
46022;SDS011;31756;47.936;16.224;2023-01-26T02:16:49;102.37;;;38.30;;
46022;SDS011;31756;47.936;16.224;2023-01-26T02:19:18;100.43;;;37.00;;
46022;SDS011;31756;47.936;16.224;2023-01-26T02:21:51;100.60;;;37.37;;
46022;SDS011;31756;47.936;16.224;2023-01-26T02:24:21;99.90;;;36.87;;
46022;SDS011;31756;47.936;16.224;2023-01-26T02:26:50;99.10;;;36.73;;
46022;SDS011;31756;47.936;16.224;2023-01-26T02:29:17;100.33;;;37.43;;
46022;SDS011;31756;47.936;16.224;2023-01-26T02:31:43;100.13;;;37.20;;
46022;SDS011;31756;47.936;16.224;2023-01-26T02:34:09;101.03;;;37.70;;
46022;SDS011;31756;47.936;16.224;2023-01-26T02:36:35;100.57;;;37.03;;
46022;SDS011;31756;47.936;16.224;2023-01-26T02:41:51;98.63;;;36.60;;
46022;SDS011;31756;47.936;16.224;2023-01-26T02:44:38;98.80;;;36.43;;
46022;SDS011;31756;47.936;16.224;2023-01-26T02:47:14;99.13;;;36.87;;
46022;SDS011;31756;47.936;16.224;2023-01-26T02:49:42;98.47;;;36.87;;
46022;SDS011;31756;47.936;16.224;2023-01-26T02:52:20;98.70;;;36.63;;
46022;SDS011;31756;47.936;16.224;2023-01-26T02:54:54;98.93;;;37.07;;
46022;SDS011;31756;47.936;16.224;2023-01-26T02:57:38;100.10;;;37.17;;
46022;SDS011;31756;47.936;16.224;2023-01-26T03:00:06;100.23;;;36.93;;
46022;SDS011;31756;47.936;16.224;2023-01-26T03:02:35;100.17;;;36.93;;
46022;SDS011;31756;47.936;16.224;2023-01-26T03:05:01;99.73;;;36.77;;
46022;SDS011;31756;47.936;16.224;2023-01-26T03:07:29;98.70;;;36.60;;
46022;SDS011;31756;47.936;16.224;2023-01-26T03:09:54;99.07;;;36.67;;
46022;SDS011;31756;47.936;16.224;2023-01-26T03:12:21;100.07;;;37.17;;
46022;SDS011;31756;47.936;16.224;2023-01-26T03:14:46;100.30;;;37.10;;
46022;SDS011;31756;47.936;16.224;2023-01-26T03:17:32;99.67;;;37.13;;
46022;SDS011;31756;47.936;16.224;2023-01-26T03:19:57;98.67;;;36.73;;
46022;SDS011;31756;47.936;16.224;2023-01-26T03:22:42;98.87;;;36.97;;
46022;SDS011;31756;47.936;16.224;2023-01-26T03:25:27;98.90;;;36.80;;
46022;SDS011;31756;47.936;16.224;2023-01-26T03:28:12;98.67;;;36.60;;
46022;SDS011;31756;47.936;16.224;2023-01-26T03:30:39;98.80;;;36.67;;
46022;SDS011;31756;47.936;16.224;2023-01-26T03:33:05;98.40;;;36.53;;
46022;SDS011;31756;47.936;16.224;2023-01-26T03:35:31;98.53;;;36.83;;
46022;SDS011;31756;47.936;16.224;2023-01-26T03:37:58;99.47;;;37.03;;
46022;SDS011;31756;47.936;16.224;2023-01-26T03:40:37;99.87;;;38.60;;
46022;SDS011;31756;47.936;16.224;2023-01-26T03:43:21;98.57;;;36.67;;
46022;SDS011;31756;47.936;16.224;2023-01-26T03:46:06;98.17;;;36.77;;
46022;SDS011;31756;47.936;16.224;2023-01-26T03:48:52;98.10;;;36.40;;
46022;SDS011;31756;47.936;16.224;2023-01-26T03:51:36;99.00;;;37.17;;
46022;SDS011;31756;47.936;16.224;2023-01-26T03:54:20;99.57;;;36.73;;
46022;SDS011;31756;47.936;16.224;2023-01-26T03:57:05;98.73;;;36.27;;
46022;SDS011;31756;47.936;16.224;2023-01-26T03:59:32;98.37;;;36.30;;
46022;SDS011;31756;47.936;16.224;2023-01-26T04:02:10;98.73;;;36.53;;
46022;SDS011;31756;47.936;16.224;2023-01-26T04:04:56;98.47;;;36.37;;
46022;SDS011;31756;47.936;16.224;2023-01-26T04:07:44;99.33;;;37.07;;
46022;SDS011;31756;47.936;16.224;2023-01-26T04:10:28;99.10;;;36.90;;
46022;SDS011;31756;47.936;16.224;2023-01-26T04:12:54;99.00;;;37.20;;
46022;SDS011;31756;47.936;16.224;2023-01-26T04:15:46;98.77;;;37.17;;
46022;SDS011;31756;47.936;16.224;2023-01-26T04:18:31;98.17;;;36.97;;
46022;SDS011;31756;47.936;16.224;2023-01-26T04:21:16;97.57;;;36.73;;
46022;SDS011;31756;47.936;16.224;2023-01-26T04:24:01;97.13;;;36.80;;
46022;SDS011;31756;47.936;16.224;2023-01-26T04:26:39;97.90;;;37.37;;
46022;SDS011;31756;47.936;16.224;2023-01-26T04:29:10;96.83;;;37.23;;
46022;SDS011;31756;47.936;16.224;2023-01-26T04:31:39;94.27;;;36.50;;
46022;SDS011;31756;47.936;16.224;2023-01-26T04:34:05;94.90;;;36.70;;
46022;SDS011;31756;47.936;16.224;2023-01-26T04:36:36;95.23;;;36.83;;
46022;SDS011;31756;47.936;16.224;2023-01-26T04:39:02;94.83;;;36.60;;
46022;SDS011;31756;47.936;16.224;2023-01-26T04:41:29;95.10;;;36.80;;
46022;SDS011;31756;47.936;16.224;2023-01-26T04:44:03;96.10;;;37.20;;
46022;SDS011;31756;47.936;16.224;2023-01-26T04:46:29;95.20;;;36.90;;
46022;SDS011;31756;47.936;16.224;2023-01-26T04:48:55;97.33;;;39.67;;
46022;SDS011;31756;47.936;16.224;2023-01-26T04:51:22;94.83;;;36.40;;
46022;SDS011;31756;47.936;16.224;2023-01-26T04:53:48;95.43;;;36.67;;
46022;SDS011;31756;47.936;16.224;2023-01-26T04:58:49;95.50;;;36.80;;
46022;SDS011;31756;47.936;16.224;2023-01-26T05:01:16;96.53;;;37.27;;
46022;SDS011;31756;47.936;16.224;2023-01-26T05:03:42;96.07;;;37.47;;
46022;SDS011;31756;47.936;16.224;2023-01-26T05:06:09;97.73;;;38.93;;
46022;SDS011;31756;47.936;16.224;2023-01-26T05:08:36;96.13;;;37.13;;
46022;SDS011;31756;47.936;16.224;2023-01-26T05:11:02;97.70;;;37.60;;
46022;SDS011;31756;47.936;16.224;2023-01-26T05:13:47;98.33;;;37.90;;
46022;SDS011;31756;47.936;16.224;2023-01-26T05:16:33;97.90;;;36.97;;
46022;SDS011;31756;47.936;16.224;2023-01-26T05:19:25;98.37;;;36.83;;
46022;SDS011;31756;47.936;16.224;2023-01-26T05:22:11;98.50;;;36.77;;
46022;SDS011;31756;47.936;16.224;2023-01-26T05:24:41;98.50;;;36.90;;
46022;SDS011;31756;47.936;16.224;2023-01-26T05:27:21;98.83;;;36.87;;
46022;SDS011;31756;47.936;16.224;2023-01-26T05:29:58;99.53;;;37.20;;
46022;SDS011;31756;47.936;16.224;2023-01-26T05:32:27;100.30;;;37.57;;
46022;SDS011;31756;47.936;16.224;2023-01-26T05:34:54;99.90;;;37.07;;
46022;SDS011;31756;47.936;16.224;2023-01-26T05:37:21;99.93;;;37.20;;
46022;SDS011;31756;47.936;16.224;2023-01-26T05:39:53;99.37;;;36.90;;
46022;SDS011;31756;47.936;16.224;2023-01-26T05:42:19;99.70;;;37.20;;
46022;SDS011;31756;47.936;16.224;2023-01-26T05:44:48;99.90;;;37.03;;
46022;SDS011;31756;47.936;16.224;2023-01-26T05:47:15;100.17;;;37.10;;
46022;SDS011;31756;47.936;16.224;2023-01-26T05:49:44;99.50;;;36.93;;
46022;SDS011;31756;47.936;16.224;2023-01-26T05:52:16;100.50;;;37.63;;
46022;SDS011;31756;47.936;16.224;2023-01-26T05:54:44;101.70;;;38.97;;
46022;SDS011;31756;47.936;16.224;2023-01-26T05:57:10;100.90;;;37.27;;
46022;SDS011;31756;47.936;16.224;2023-01-26T05:59:40;99.17;;;36.67;;
46022;SDS011;31756;47.936;16.224;2023-01-26T06:02:07;100.90;;;37.23;;
46022;SDS011;31756;47.936;16.224;2023-01-26T06:04:35;100.27;;;37.43;;
46022;SDS011;31756;47.936;16.224;2023-01-26T06:07:01;101.13;;;38.03;;
46022;SDS011;31756;47.936;16.224;2023-01-26T06:09:33;101.47;;;38.37;;
46022;SDS011;31756;47.936;16.224;2023-01-26T06:12:20;101.20;;;37.57;;
46022;SDS011;31756;47.936;16.224;2023-01-26T06:14:56;101.30;;;37.93;;
46022;SDS011;31756;47.936;16.224;2023-01-26T06:17:30;98.93;;;36.37;;
46022;SDS011;31756;47.936;16.224;2023-01-26T06:19:59;100.97;;;37.80;;
46022;SDS011;31756;47.936;16.224;2023-01-26T06:22:25;101.93;;;38.00;;
46022;SDS011;31756;47.936;16.224;2023-01-26T06:24:51;102.23;;;38.23;;
46022;SDS011;31756;47.936;16.224;2023-01-26T06:27:20;103.00;;;37.97;;
46022;SDS011;31756;47.936;16.224;2023-01-26T06:29:47;102.37;;;38.07;;
46022;SDS011;31756;47.936;16.224;2023-01-26T06:32:13;102.57;;;37.93;;
46022;SDS011;31756;47.936;16.224;2023-01-26T06:34:42;101.33;;;37.37;;
46022;SDS011;31756;47.936;16.224;2023-01-26T06:37:07;99.97;;;37.07;;
46022;SDS011;31756;47.936;16.224;2023-01-26T06:39:37;101.97;;;37.77;;
46022;SDS011;31756;47.936;16.224;2023-01-26T06:42:04;100.77;;;37.20;;
46022;SDS011;31756;47.936;16.224;2023-01-26T06:44:32;102.63;;;39.10;;
46022;SDS011;31756;47.936;16.224;2023-01-26T06:46:58;101.60;;;37.77;;
46022;SDS011;31756;47.936;16.224;2023-01-26T06:49:24;99.53;;;37.03;;
46022;SDS011;31756;47.936;16.224;2023-01-26T06:51:57;100.27;;;37.37;;
46022;SDS011;31756;47.936;16.224;2023-01-26T06:54:40;101.07;;;38.17;;
46022;SDS011;31756;47.936;16.224;2023-01-26T06:57:18;100.70;;;37.30;;
46022;SDS011;31756;47.936;16.224;2023-01-26T07:00:23;101.57;;;37.70;;
46022;SDS011;31756;47.936;16.224;2023-01-26T07:02:56;100.93;;;37.60;;
46022;SDS011;31756;47.936;16.224;2023-01-26T07:05:22;101.47;;;38.37;;
46022;SDS011;31756;47.936;16.224;2023-01-26T07:07:47;99.93;;;37.43;;
46022;SDS011;31756;47.936;16.224;2023-01-26T07:10:13;102.57;;;38.30;;
46022;SDS011;31756;47.936;16.224;2023-01-26T07:12:43;101.73;;;38.13;;
46022;SDS011;31756;47.936;16.224;2023-01-26T07:15:10;102.37;;;38.73;;
46022;SDS011;31756;47.936;16.224;2023-01-26T07:17:37;101.47;;;37.70;;
46022;SDS011;31756;47.936;16.224;2023-01-26T07:20:04;101.77;;;38.17;;
46022;SDS011;31756;47.936;16.224;2023-01-26T07:22:31;100.60;;;37.67;;
46022;SDS011;31756;47.936;16.224;2023-01-26T07:24:56;99.40;;;37.30;;
46022;SDS011;31756;47.936;16.224;2023-01-26T07:27:22;100.40;;;37.47;;
46022;SDS011;31756;47.936;16.224;2023-01-26T07:29:48;100.27;;;37.33;;
46022;SDS011;31756;47.936;16.224;2023-01-26T07:32:15;100.83;;;37.33;;
46022;SDS011;31756;47.936;16.224;2023-01-26T07:34:41;100.47;;;37.90;;
46022;SDS011;31756;47.936;16.224;2023-01-26T07:37:07;99.77;;;37.23;;
46022;SDS011;31756;47.936;16.224;2023-01-26T07:39:32;99.40;;;37.00;;
46022;SDS011;31756;47.936;16.224;2023-01-26T07:41:58;99.93;;;37.40;;
46022;SDS011;31756;47.936;16.224;2023-01-26T07:44:44;100.37;;;37.60;;
46022;SDS011;31756;47.936;16.224;2023-01-26T07:47:10;99.77;;;37.07;;
46022;SDS011;31756;47.936;16.224;2023-01-26T07:49:36;99.70;;;37.10;;
46022;SDS011;31756;47.936;16.224;2023-01-26T07:52:02;99.83;;;37.43;;
46022;SDS011;31756;47.936;16.224;2023-01-26T07:54:29;98.80;;;37.07;;
46022;SDS011;31756;47.936;16.224;2023-01-26T07:56:55;100.27;;;37.60;;
46022;SDS011;31756;47.936;16.224;2023-01-26T07:59:21;100.40;;;37.50;;
46022;SDS011;31756;47.936;16.224;2023-01-26T08:01:49;98.57;;;36.83;;
46022;SDS011;31756;47.936;16.224;2023-01-26T08:04:15;99.23;;;37.20;;
46022;SDS011;31756;47.936;16.224;2023-01-26T08:06:41;99.40;;;37.30;;
46022;SDS011;31756;47.936;16.224;2023-01-26T08:09:07;99.77;;;37.93;;
46022;SDS011;31756;47.936;16.224;2023-01-26T08:11:33;99.57;;;37.60;;
46022;SDS011;31756;47.936;16.224;2023-01-26T08:13:59;99.87;;;37.70;;
46022;SDS011;31756;47.936;16.224;2023-01-26T08:16:25;102.13;;;38.77;;
46022;SDS011;31756;47.936;16.224;2023-01-26T08:18:50;100.67;;;38.47;;
46022;SDS011;31756;47.936;16.224;2023-01-26T08:21:16;102.43;;;39.03;;
46022;SDS011;31756;47.936;16.224;2023-01-26T08:23:46;100.10;;;38.10;;
46022;SDS011;31756;47.936;16.224;2023-01-26T08:26:12;101.07;;;38.30;;
46022;SDS011;31756;47.936;16.224;2023-01-26T08:28:39;100.97;;;37.93;;
46022;SDS011;31756;47.936;16.224;2023-01-26T08:31:09;100.53;;;39.10;;
46022;SDS011;31756;47.936;16.224;2023-01-26T08:33:44;100.73;;;38.50;;
46022;SDS011;31756;47.936;16.224;2023-01-26T08:36:11;99.27;;;37.73;;
46022;SDS011;31756;47.936;16.224;2023-01-26T08:38:38;101.13;;;38.30;;
46022;SDS011;31756;47.936;16.224;2023-01-26T08:41:04;101.30;;;38.43;;
46022;SDS011;31756;47.936;16.224;2023-01-26T08:43:30;100.30;;;37.93;;
46022;SDS011;31756;47.936;16.224;2023-01-26T08:45:56;99.90;;;37.53;;
46022;SDS011;31756;47.936;16.224;2023-01-26T08:48:21;99.77;;;37.80;;
46022;SDS011;31756;47.936;16.224;2023-01-26T08:50:51;99.63;;;37.37;;
46022;SDS011;31756;47.936;16.224;2023-01-26T08:53:18;100.13;;;38.30;;
46022;SDS011;31756;47.936;16.224;2023-01-26T08:55:44;99.80;;;38.63;;
46022;SDS011;31756;47.936;16.224;2023-01-26T08:58:09;99.03;;;38.10;;
46022;SDS011;31756;47.936;16.224;2023-01-26T09:00:35;97.80;;;36.90;;
46022;SDS011;31756;47.936;16.224;2023-01-26T09:03:01;98.73;;;37.80;;
46022;SDS011;31756;47.936;16.224;2023-01-26T09:05:33;97.63;;;37.93;;
46022;SDS011;31756;47.936;16.224;2023-01-26T09:08:01;97.20;;;37.57;;
46022;SDS011;31756;47.936;16.224;2023-01-26T09:10:28;96.70;;;37.27;;
46022;SDS011;31756;47.936;16.224;2023-01-26T09:12:53;96.87;;;37.53;;
46022;SDS011;31756;47.936;16.224;2023-01-26T09:15:21;96.90;;;37.83;;
46022;SDS011;31756;47.936;16.224;2023-01-26T09:17:47;97.17;;;38.43;;
46022;SDS011;31756;47.936;16.224;2023-01-26T09:20:13;95.63;;;38.20;;
46022;SDS011;31756;47.936;16.224;2023-01-26T09:22:39;94.63;;;37.53;;
46022;SDS011;31756;47.936;16.224;2023-01-26T09:25:05;93.93;;;36.97;;
46022;SDS011;31756;47.936;16.224;2023-01-26T09:27:31;93.93;;;37.37;;
46022;SDS011;31756;47.936;16.224;2023-01-26T09:29:57;93.93;;;37.80;;
46022;SDS011;31756;47.936;16.224;2023-01-26T09:32:22;93.20;;;37.00;;
46022;SDS011;31756;47.936;16.224;2023-01-26T09:34:48;93.43;;;37.13;;
46022;SDS011;31756;47.936;16.224;2023-01-26T09:37:14;93.37;;;37.37;;
46022;SDS011;31756;47.936;16.224;2023-01-26T09:39:39;92.67;;;37.27;;
46022;SDS011;31756;47.936;16.224;2023-01-26T09:45:02;93.73;;;37.63;;
46022;SDS011;31756;47.936;16.224;2023-01-26T09:50:23;95.10;;;38.60;;
46022;SDS011;31756;47.936;16.224;2023-01-26T09:53:18;95.07;;;37.93;;
46022;SDS011;31756;47.936;16.224;2023-01-26T09:56:08;94.23;;;37.50;;
46022;SDS011;31756;47.936;16.224;2023-01-26T10:01:55;93.73;;;37.33;;
46022;SDS011;31756;47.936;16.224;2023-01-26T10:04:41;93.37;;;36.63;;
46022;SDS011;31756;47.936;16.224;2023-01-26T10:07:10;93.13;;;37.27;;
46022;SDS011;31756;47.936;16.224;2023-01-26T10:09:49;91.67;;;35.83;;
46022;SDS011;31756;47.936;16.224;2023-01-26T10:12:30;94.03;;;38.13;;
46022;SDS011;31756;47.936;16.224;2023-01-26T10:15:03;94.13;;;37.27;;
46022;SDS011;31756;47.936;16.224;2023-01-26T10:17:41;93.43;;;36.50;;
46022;SDS011;31756;47.936;16.224;2023-01-26T10:20:30;94.00;;;36.87;;
46022;SDS011;31756;47.936;16.224;2023-01-26T10:23:03;94.67;;;37.23;;
46022;SDS011;31756;47.936;16.224;2023-01-26T10:25:38;95.67;;;38.10;;
46022;SDS011;31756;47.936;16.224;2023-01-26T10:30:44;94.80;;;36.67;;
46022;SDS011;31756;47.936;16.224;2023-01-26T10:33:15;95.67;;;37.20;;
46022;SDS011;31756;47.936;16.224;2023-01-26T10:35:43;96.57;;;38.57;;
46022;SDS011;31756;47.936;16.224;2023-01-26T10:38:25;96.23;;;37.47;;
46022;SDS011;31756;47.936;16.224;2023-01-26T10:40:57;94.80;;;36.97;;
46022;SDS011;31756;47.936;16.224;2023-01-26T10:43:25;98.07;;;39.23;;
46022;SDS011;31756;47.936;16.224;2023-01-26T10:45:51;96.40;;;37.17;;
46022;SDS011;31756;47.936;16.224;2023-01-26T10:48:17;96.93;;;37.33;;
46022;SDS011;31756;47.936;16.224;2023-01-26T10:50:51;97.30;;;37.70;;
46022;SDS011;31756;47.936;16.224;2023-01-26T10:53:22;97.20;;;37.33;;
46022;SDS011;31756;47.936;16.224;2023-01-26T10:56:31;95.50;;;36.63;;
46022;SDS011;31756;47.936;16.224;2023-01-26T11:01:09;96.07;;;37.10;;
46022;SDS011;31756;47.936;16.224;2023-01-26T11:03:36;97.23;;;37.87;;
46022;SDS011;31756;47.936;16.224;2023-01-26T11:06:16;96.70;;;37.30;;
46022;SDS011;31756;47.936;16.224;2023-01-26T11:08:42;96.80;;;37.60;;
46022;SDS011;31756;47.936;16.224;2023-01-26T11:14:15;97.10;;;37.33;;
46022;SDS011;31756;47.936;16.224;2023-01-26T11:16:49;97.30;;;37.33;;
46022;SDS011;31756;47.936;16.224;2023-01-26T11:22:07;97.47;;;37.83;;
46022;SDS011;31756;47.936;16.224;2023-01-26T11:30:35;97.90;;;37.87;;
46022;SDS011;31756;47.936;16.224;2023-01-26T11:36:08;96.57;;;37.07;;
46022;SDS011;31756;47.936;16.224;2023-01-26T11:38:51;96.83;;;37.23;;
46022;SDS011;31756;47.936;16.224;2023-01-26T11:44:52;95.20;;;36.53;;
46022;SDS011;31756;47.936;16.224;2023-01-26T11:50:18;96.77;;;37.00;;
46022;SDS011;31756;47.936;16.224;2023-01-26T11:58:13;97.87;;;37.50;;
46022;SDS011;31756;47.936;16.224;2023-01-26T12:00:51;97.67;;;37.47;;
46022;SDS011;31756;47.936;16.224;2023-01-26T12:03:28;96.30;;;37.07;;
46022;SDS011;31756;47.936;16.224;2023-01-26T12:06:01;97.80;;;37.43;;
46022;SDS011;31756;47.936;16.224;2023-01-26T12:11:10;97.63;;;37.73;;
46022;SDS011;31756;47.936;16.224;2023-01-26T12:22:14;96.20;;;36.87;;
46022;SDS011;31756;47.936;16.224;2023-01-26T12:24:51;97.37;;;37.53;;
46022;SDS011;31756;47.936;16.224;2023-01-26T12:27:38;97.57;;;37.63;;
46022;SDS011;31756;47.936;16.224;2023-01-26T12:30:21;96.20;;;37.13;;
46022;SDS011;31756;47.936;16.224;2023-01-26T12:32:50;96.00;;;36.80;;
46022;SDS011;31756;47.936;16.224;2023-01-26T12:35:19;97.10;;;38.47;;
46022;SDS011;31756;47.936;16.224;2023-01-26T12:38:16;96.87;;;37.53;;
46022;SDS011;31756;47.936;16.224;2023-01-26T12:43:21;96.53;;;37.13;;
46022;SDS011;31756;47.936;16.224;2023-01-26T12:45:55;95.90;;;36.60;;
46022;SDS011;31756;47.936;16.224;2023-01-26T12:48:33;96.87;;;37.47;;
46022;SDS011;31756;47.936;16.224;2023-01-26T12:51:07;96.97;;;36.80;;
46022;SDS011;31756;47.936;16.224;2023-01-26T12:56:22;95.23;;;36.73;;
46022;SDS011;31756;47.936;16.224;2023-01-26T12:58:54;95.97;;;37.10;;
46022;SDS011;31756;47.936;16.224;2023-01-26T13:01:23;97.13;;;37.23;;
46022;SDS011;31756;47.936;16.224;2023-01-26T13:04:01;97.43;;;37.93;;
46022;SDS011;31756;47.936;16.224;2023-01-26T13:06:31;96.47;;;37.00;;
46022;SDS011;31756;47.936;16.224;2023-01-26T13:14:29;98.30;;;38.90;;
46022;SDS011;31756;47.936;16.224;2023-01-26T13:29:54;98.00;;;38.03;;
46022;SDS011;31756;47.936;16.224;2023-01-26T13:34:47;98.27;;;38.10;;
46022;SDS011;31756;47.936;16.224;2023-01-26T13:40:13;97.97;;;37.73;;
46022;SDS011;31756;47.936;16.224;2023-01-26T13:42:54;99.03;;;38.27;;
46022;SDS011;31756;47.936;16.224;2023-01-26T13:48:19;99.30;;;37.87;;
46022;SDS011;31756;47.936;16.224;2023-01-26T13:51:04;99.50;;;37.87;;
46022;SDS011;31756;47.936;16.224;2023-01-26T13:56:02;98.93;;;37.93;;
46022;SDS011;31756;47.936;16.224;2023-01-26T13:58:32;99.53;;;37.97;;
46022;SDS011;31756;47.936;16.224;2023-01-26T14:03:28;98.63;;;38.03;;
46022;SDS011;31756;47.936;16.224;2023-01-26T14:05:59;98.60;;;37.93;;
46022;SDS011;31756;47.936;16.224;2023-01-26T14:08:29;97.87;;;37.77;;
46022;SDS011;31756;47.936;16.224;2023-01-26T14:10:57;97.90;;;37.43;;
46022;SDS011;31756;47.936;16.224;2023-01-26T14:13:32;99.47;;;38.77;;
46022;SDS011;31756;47.936;16.224;2023-01-26T14:16:00;98.90;;;37.50;;
46022;SDS011;31756;47.936;16.224;2023-01-26T14:18:28;97.90;;;37.33;;
46022;SDS011;31756;47.936;16.224;2023-01-26T14:21:12;97.80;;;37.87;;
46022;SDS011;31756;47.936;16.224;2023-01-26T14:23:41;98.17;;;37.63;;
46022;SDS011;31756;47.936;16.224;2023-01-26T14:28:47;98.23;;;37.90;;
46022;SDS011;31756;47.936;16.224;2023-01-26T14:31:17;98.33;;;37.97;;
46022;SDS011;31756;47.936;16.224;2023-01-26T14:33:46;98.07;;;38.00;;
46022;SDS011;31756;47.936;16.224;2023-01-26T14:36:16;97.43;;;37.27;;
46022;SDS011;31756;47.936;16.224;2023-01-26T14:38:45;98.20;;;38.77;;
46022;SDS011;31756;47.936;16.224;2023-01-26T14:41:16;98.47;;;38.37;;
46022;SDS011;31756;47.936;16.224;2023-01-26T14:43:53;100.07;;;38.53;;
46022;SDS011;31756;47.936;16.224;2023-01-26T14:49:03;101.93;;;40.23;;
46022;SDS011;31756;47.936;16.224;2023-01-26T14:51:35;100.13;;;39.40;;
46022;SDS011;31756;47.936;16.224;2023-01-26T14:54:02;98.70;;;38.50;;
46022;SDS011;31756;47.936;16.224;2023-01-26T14:56:38;100.07;;;39.90;;
46022;SDS011;31756;47.936;16.224;2023-01-26T14:59:07;100.10;;;38.67;;
46022;SDS011;31756;47.936;16.224;2023-01-26T15:01:47;98.40;;;38.27;;
46022;SDS011;31756;47.936;16.224;2023-01-26T15:04:47;97.90;;;38.07;;
46022;SDS011;31756;47.936;16.224;2023-01-26T15:12:59;97.03;;;37.40;;
46022;SDS011;31756;47.936;16.224;2023-01-26T15:15:35;98.30;;;38.33;;
46022;SDS011;31756;47.936;16.224;2023-01-26T15:20:41;98.83;;;38.33;;
46022;SDS011;31756;47.936;16.224;2023-01-26T15:23:34;98.60;;;38.23;;
46022;SDS011;31756;47.936;16.224;2023-01-26T15:28:33;99.10;;;37.90;;
46022;SDS011;31756;47.936;16.224;2023-01-26T15:30:59;102.30;;;39.47;;
46022;SDS011;31756;47.936;16.224;2023-01-26T15:36:27;104.97;;;40.07;;
46022;SDS011;31756;47.936;16.224;2023-01-26T15:41:25;103.97;;;40.17;;
46022;SDS011;31756;47.936;16.224;2023-01-26T15:43:51;100.90;;;38.70;;
46022;SDS011;31756;47.936;16.224;2023-01-26T15:46:17;101.27;;;38.93;;
46022;SDS011;31756;47.936;16.224;2023-01-26T15:48:42;100.03;;;38.77;;
46022;SDS011;31756;47.936;16.224;2023-01-26T15:51:12;98.20;;;37.70;;
46022;SDS011;31756;47.936;16.224;2023-01-26T15:53:38;100.43;;;39.03;;
46022;SDS011;31756;47.936;16.224;2023-01-26T15:56:04;102.60;;;40.57;;
46022;SDS011;31756;47.936;16.224;2023-01-26T15:58:30;101.17;;;39.43;;
46022;SDS011;31756;47.936;16.224;2023-01-26T16:00:59;101.33;;;39.97;;
46022;SDS011;31756;47.936;16.224;2023-01-26T16:03:25;99.97;;;38.37;;
46022;SDS011;31756;47.936;16.224;2023-01-26T16:05:51;99.53;;;38.10;;
46022;SDS011;31756;47.936;16.224;2023-01-26T16:08:17;99.43;;;38.67;;
46022;SDS011;31756;47.936;16.224;2023-01-26T16:10:44;98.97;;;37.57;;
46022;SDS011;31756;47.936;16.224;2023-01-26T16:13:14;99.70;;;38.40;;
46022;SDS011;31756;47.936;16.224;2023-01-26T16:15:43;98.87;;;37.30;;
46022;SDS011;31756;47.936;16.224;2023-01-26T16:18:11;100.23;;;39.10;;
46022;SDS011;31756;47.936;16.224;2023-01-26T16:20:38;100.10;;;38.30;;
46022;SDS011;31756;47.936;16.224;2023-01-26T16:23:19;100.57;;;37.77;;
46022;SDS011;31756;47.936;16.224;2023-01-26T16:25:46;106.27;;;40.27;;
46022;SDS011;31756;47.936;16.224;2023-01-26T16:28:12;106.90;;;40.87;;
46022;SDS011;31756;47.936;16.224;2023-01-26T16:30:40;107.67;;;41.77;;